Time;durP1;ratioP1;P1;durP2;ratioP2;P2;SDS_P1;SDS_P2;PMS_P1;PMS_P2;Temp;Humidity;BMP_temperature;BMP_pressure;BME280_temperature;BME280_humidity;BME280_pressure;Samples;Min_cycle;Max_cycle;Signal;HPM_P1;HPM_P2
2022/02/21 00:01:19;;;;;;;68.78;42.15;;;;;;;;;;5095478;28;20454;-86
2022/02/21 00:03:46;;;;;;;70.30;42.70;;;;;;;;;;5096670;28;20402;-85
2022/02/21 00:06:14;;;;;;;70.45;43.78;;;;;;;;;;5094076;28;20423;-86
2022/02/21 00:08:41;;;;;;;68.90;41.83;;;;;;;;;;5099273;28;20792;-86
2022/02/21 00:11:08;;;;;;;69.10;41.90;;;;;;;;;;5099024;28;20756;-84
2022/02/21 00:13:35;;;;;;;72.03;43.15;;;;;;;;;;5100250;28;20417;-86
2022/02/21 00:16:01;;;;;;;71.10;42.90;;;;;;;;;;5099190;28;20394;-85
2022/02/21 00:18:30;;;;;;;67.90;42.40;;;;;;;;;;5098337;28;20396;-86
2022/02/21 00:20:56;;;;;;;69.97;41.53;;;;;;;;;;5100250;28;20406;-85
2022/02/21 00:23:23;;;;;;;67.72;42.25;;;;;;;;;;5098272;28;20402;-85
2022/02/21 00:25:50;;;;;;;68.68;42.30;;;;;;;;;;5097236;28;20422;-87
2022/02/21 00:28:17;;;;;;;69.13;42.13;;;;;;;;;;5096166;28;20931;-84
2022/02/21 00:30:44;;;;;;;70.28;41.90;;;;;;;;;;5097906;28;20800;-85
2022/02/21 00:33:10;;;;;;;66.38;41.08;;;;;;;;;;5098611;28;20493;-84
2022/02/21 00:35:39;;;;;;;67.15;41.00;;;;;;;;;;5097249;28;20455;-86
2022/02/21 00:38:05;;;;;;;69.95;41.60;;;;;;;;;;5094907;28;20478;-86
2022/02/21 00:40:32;;;;;;;63.65;40.90;;;;;;;;;;5096817;28;20403;-85
2022/02/21 00:42:59;;;;;;;66.00;41.72;;;;;;;;;;5098963;28;20449;-86
2022/02/21 00:45:26;;;;;;;68.00;42.13;;;;;;;;;;5096486;28;20416;-84
2022/02/21 00:47:53;;;;;;;69.55;41.30;;;;;;;;;;5096161;28;20400;-86
2022/02/21 00:50:20;;;;;;;73.40;42.55;;;;;;;;;;5095334;28;20400;-86
2022/02/21 00:52:49;;;;;;;66.43;41.88;;;;;;;;;;5103806;28;20398;-86
2022/02/21 00:55:16;;;;;;;68.63;42.50;;;;;;;;;;5104627;28;20402;-84
2022/02/21 00:57:43;;;;;;;68.63;43.20;;;;;;;;;;5105220;28;20491;-85
2022/02/21 01:00:11;;;;;;;68.53;42.65;;;;;;;;;;5101279;28;20390;-85
2022/02/21 01:02:38;;;;;;;71.68;44.58;;;;;;;;;;5106180;28;20394;-85
2022/02/21 01:05:05;;;;;;;74.35;43.53;;;;;;;;;;5105554;28;20414;-85
2022/02/21 01:07:32;;;;;;;69.80;42.75;;;;;;;;;;5101824;28;20459;-84
2022/02/21 01:10:00;;;;;;;74.35;43.88;;;;;;;;;;5105877;28;20820;-85
2022/02/21 01:12:27;;;;;;;69.47;42.93;;;;;;;;;;5105657;28;20880;-84
2022/02/21 01:14:54;;;;;;;69.15;43.65;;;;;;;;;;5105790;28;20460;-84
2022/02/21 01:17:22;;;;;;;70.50;43.72;;;;;;;;;;5105011;28;20397;-86
2022/02/21 01:19:49;;;;;;;73.10;43.80;;;;;;;;;;5106005;28;20402;-85
2022/02/21 01:22:16;;;;;;;75.05;44.03;;;;;;;;;;5105243;28;20402;-85
2022/02/21 01:24:42;;;;;;;70.72;42.40;;;;;;;;;;5106060;28;20399;-85
2022/02/21 01:27:14;;;;;;;71.40;42.15;;;;;;;;;;5105092;28;20394;-86
2022/02/21 01:29:41;;;;;;;71.55;42.38;;;;;;;;;;5101981;28;20496;-85
2022/02/21 01:32:08;;;;;;;69.40;42.15;;;;;;;;;;5104851;28;20406;-85
2022/02/21 01:34:35;;;;;;;69.87;42.17;;;;;;;;;;5105350;28;20425;-86
2022/02/21 01:37:02;;;;;;;69.85;41.55;;;;;;;;;;5103865;28;20451;-85
2022/02/21 01:39:29;;;;;;;72.50;43.60;;;;;;;;;;5105218;28;20398;-84
2022/02/21 01:41:56;;;;;;;71.60;43.17;;;;;;;;;;5105204;28;20387;-85
2022/02/21 01:44:35;;;;;;;69.38;42.53;;;;;;;;;;5104411;28;20410;-85
2022/02/21 01:47:02;;;;;;;70.97;42.08;;;;;;;;;;5104447;28;20489;-86
2022/02/21 01:49:29;;;;;;;72.95;43.42;;;;;;;;;;5104701;28;20878;-85
2022/02/21 01:51:56;;;;;;;73.55;43.95;;;;;;;;;;5104713;28;20459;-86
2022/02/21 01:54:23;;;;;;;72.38;43.45;;;;;;;;;;5104687;28;20807;-86
2022/02/21 01:56:50;;;;;;;70.03;43.00;;;;;;;;;;5100634;28;20413;-85
2022/02/21 01:59:17;;;;;;;70.55;42.28;;;;;;;;;;5102949;28;20402;-85
2022/02/21 02:01:45;;;;;;;69.53;43.38;;;;;;;;;;5105207;28;20459;-86
2022/02/21 02:04:12;;;;;;;70.77;42.43;;;;;;;;;;5102226;28;20414;-86
2022/02/21 02:06:39;;;;;;;70.85;42.38;;;;;;;;;;5103893;28;20419;-84
2022/02/21 02:09:06;;;;;;;69.37;42.30;;;;;;;;;;5103311;28;20398;-86
2022/02/21 02:11:34;;;;;;;67.57;41.55;;;;;;;;;;5104749;28;20451;-85
2022/02/21 02:14:01;;;;;;;69.30;42.67;;;;;;;;;;5103960;28;20481;-87
2022/02/21 02:16:28;;;;;;;68.90;43.20;;;;;;;;;;5104479;28;20398;-84
2022/02/21 02:18:56;;;;;;;69.38;42.72;;;;;;;;;;5104253;28;20742;-86
2022/02/21 02:21:26;;;;;;;65.93;41.47;;;;;;;;;;5103731;28;20431;-86
2022/02/21 02:23:55;;;;;;;72.10;42.90;;;;;;;;;;5104408;28;20413;-86
2022/02/21 02:26:23;;;;;;;68.07;41.08;;;;;;;;;;5103708;28;20437;-86
2022/02/21 02:28:52;;;;;;;67.73;42.17;;;;;;;;;;5104491;28;20426;-85
2022/02/21 02:31:19;;;;;;;67.78;41.95;;;;;;;;;;5104128;28;20409;-85
2022/02/21 02:33:47;;;;;;;68.47;41.78;;;;;;;;;;5104526;28;20394;-86
2022/02/21 02:36:13;;;;;;;70.63;41.97;;;;;;;;;;5103607;28;20397;-86
2022/02/21 02:38:42;;;;;;;68.15;41.63;;;;;;;;;;5104517;28;20945;-85
2022/02/21 02:41:11;;;;;;;69.85;41.75;;;;;;;;;;5103874;28;20421;-86
2022/02/21 02:43:39;;;;;;;69.82;41.15;;;;;;;;;;5103528;28;20414;-86
2022/02/21 02:46:06;;;;;;;72.63;42.10;;;;;;;;;;5103158;28;20483;-86
2022/02/21 02:48:33;;;;;;;72.20;43.20;;;;;;;;;;5104248;28;20931;-86
2022/02/21 02:51:00;;;;;;;72.07;41.58;;;;;;;;;;5104101;28;20406;-86
2022/02/21 02:53:29;;;;;;;67.95;42.05;;;;;;;;;;5103684;28;20403;-85
2022/02/21 02:55:55;;;;;;;71.35;43.13;;;;;;;;;;5104470;28;20755;-86
2022/02/21 02:58:24;;;;;;;71.88;42.70;;;;;;;;;;5103245;28;20402;-84
2022/02/21 03:00:51;;;;;;;68.20;42.38;;;;;;;;;;5104268;28;20428;-86
2022/02/21 03:03:18;;;;;;;70.65;42.58;;;;;;;;;;5102409;28;20466;-85
2022/02/21 03:05:45;;;;;;;70.63;43.00;;;;;;;;;;5104353;28;20882;-85
2022/02/21 03:08:12;;;;;;;68.20;42.17;;;;;;;;;;5104326;28;20398;-84
2022/02/21 03:10:39;;;;;;;71.68;41.90;;;;;;;;;;5089560;22;20420;-87
2022/02/21 03:13:06;;;;;;;73.40;43.38;;;;;;;;;;5057757;28;20398;-88
2022/02/21 03:15:35;;;;;;;71.72;42.30;;;;;;;;;;5051069;28;20890;-87
2022/02/21 03:18:01;;;;;;;71.82;43.25;;;;;;;;;;5046196;28;20405;-89
2022/02/21 03:20:29;;;;;;;72.55;43.20;;;;;;;;;;5065884;28;20401;-87
2022/02/21 03:22:55;;;;;;;71.68;43.65;;;;;;;;;;5066651;28;20397;-88
2022/02/21 03:25:22;;;;;;;73.55;45.42;;;;;;;;;;5066678;28;20763;-87
2022/02/21 03:27:49;;;;;;;73.85;43.15;;;;;;;;;;5061626;28;20405;-86
2022/02/21 03:30:16;;;;;;;69.88;41.88;;;;;;;;;;5067924;28;20400;-87
2022/02/21 03:32:45;;;;;;;73.80;44.20;;;;;;;;;;5069746;28;20393;-87
2022/02/21 03:35:13;;;;;;;73.18;42.85;;;;;;;;;;5070143;28;20423;-87
2022/02/21 03:37:40;;;;;;;72.43;42.78;;;;;;;;;;5070024;28;20416;-86
2022/02/21 03:40:09;;;;;;;78.68;45.25;;;;;;;;;;5069540;28;20417;-88
2022/02/21 03:42:36;;;;;;;76.65;43.90;;;;;;;;;;5070126;28;20405;-87
2022/02/21 03:45:05;;;;;;;77.97;43.55;;;;;;;;;;5069690;28;20484;-86
2022/02/21 03:47:32;;;;;;;73.78;43.25;;;;;;;;;;5069328;28;21015;-88
2022/02/21 03:50:01;;;;;;;72.07;43.17;;;;;;;;;;5070166;28;20479;-88
2022/02/21 03:52:28;;;;;;;71.53;42.15;;;;;;;;;;5069858;28;20440;-88
2022/02/21 03:54:54;;;;;;;71.45;42.45;;;;;;;;;;5052016;28;20451;-88
2022/02/21 03:57:21;;;;;;;72.25;42.10;;;;;;;;;;5069545;28;20406;-88
2022/02/21 03:59:49;;;;;;;69.88;42.13;;;;;;;;;;5051957;28;20405;-87
2022/02/21 04:02:16;;;;;;;74.35;42.25;;;;;;;;;;5069175;28;20735;-88
2022/02/21 04:04:44;;;;;;;76.30;43.47;;;;;;;;;;5068904;28;20446;-88
2022/02/21 04:07:12;;;;;;;75.50;44.90;;;;;;;;;;5069203;28;20589;-88
2022/02/21 04:09:39;;;;;;;76.25;44.95;;;;;;;;;;5069262;28;20410;-88
2022/02/21 04:12:07;;;;;;;74.40;42.80;;;;;;;;;;5044758;28;20397;-87
2022/02/21 04:14:34;;;;;;;76.60;43.30;;;;;;;;;;5069830;28;20456;-87
2022/02/21 04:17:02;;;;;;;71.35;41.22;;;;;;;;;;5050735;28;20739;-87
2022/02/21 04:19:29;;;;;;;73.65;42.88;;;;;;;;;;5065652;28;20402;-87
2022/02/21 04:21:56;;;;;;;72.88;42.85;;;;;;;;;;5069471;28;20393;-88
2022/02/21 04:24:25;;;;;;;73.90;43.20;;;;;;;;;;5068537;28;20441;-88
2022/02/21 04:26:52;;;;;;;71.40;42.15;;;;;;;;;;5068850;28;20429;-88
2022/02/21 04:29:19;;;;;;;74.63;43.45;;;;;;;;;;5068942;28;20780;-89
2022/02/21 04:31:46;;;;;;;71.75;42.50;;;;;;;;;;5069002;28;20418;-87
2022/02/21 04:34:13;;;;;;;74.97;43.08;;;;;;;;;;5069118;28;20410;-88
2022/02/21 04:36:40;;;;;;;69.93;42.78;;;;;;;;;;5069236;28;20451;-88
2022/02/21 04:39:07;;;;;;;76.47;43.88;;;;;;;;;;5068549;28;20403;-88
2022/02/21 04:41:36;;;;;;;74.63;44.10;;;;;;;;;;5068927;28;20439;-88
2022/02/21 04:44:03;;;;;;;76.57;43.35;;;;;;;;;;5068652;28;20804;-88
2022/02/21 04:46:30;;;;;;;75.00;44.03;;;;;;;;;;5068822;28;20402;-88
2022/02/21 04:48:57;;;;;;;73.85;43.00;;;;;;;;;;5068775;28;20884;-88
2022/02/21 04:51:24;;;;;;;74.95;43.58;;;;;;;;;;5068605;28;20405;-88
2022/02/21 04:53:51;;;;;;;73.47;44.55;;;;;;;;;;5050779;28;20910;-88
2022/02/21 04:56:18;;;;;;;76.50;43.85;;;;;;;;;;5068487;28;20834;-88
2022/02/21 04:58:46;;;;;;;80.70;46.05;;;;;;;;;;5068794;28;20463;-88
2022/02/21 05:01:13;;;;;;;79.25;46.30;;;;;;;;;;5049895;28;20409;-88
2022/02/21 05:03:40;;;;;;;81.15;46.35;;;;;;;;;;5060946;28;20834;-87
2022/02/21 05:06:08;;;;;;;80.35;45.65;;;;;;;;;;5060178;28;20464;-89
2022/02/21 05:08:35;;;;;;;79.10;46.00;;;;;;;;;;5060205;28;20396;-88
2022/02/21 05:11:02;;;;;;;77.25;45.45;;;;;;;;;;5055345;28;20463;-88
2022/02/21 05:13:29;;;;;;;82.43;45.90;;;;;;;;;;5056103;28;20419;-88
2022/02/21 05:15:57;;;;;;;74.70;43.33;;;;;;;;;;5067067;28;20473;-88
2022/02/21 05:18:24;;;;;;;71.25;42.80;;;;;;;;;;5043404;28;20424;-88
2022/02/21 05:20:51;;;;;;;74.57;44.53;;;;;;;;;;5039296;28;20465;-87
2022/02/21 05:23:19;;;;;;;71.28;41.08;;;;;;;;;;5044648;28;20432;-88
2022/02/21 05:25:46;;;;;;;68.57;40.00;;;;;;;;;;5037059;28;20834;-87
2022/02/21 05:28:12;;;;;;;72.50;40.88;;;;;;;;;;5036025;28;20399;-87
2022/02/21 05:30:40;;;;;;;71.13;41.90;;;;;;;;;;5040053;28;20447;-87
2022/02/21 05:33:08;;;;;;;72.53;42.38;;;;;;;;;;5039516;28;20526;-88
2022/02/21 05:35:35;;;;;;;70.85;40.67;;;;;;;;;;5043424;28;20754;-88
2022/02/21 05:38:02;;;;;;;69.85;41.13;;;;;;;;;;5044211;28;20390;-88
2022/02/21 05:40:29;;;;;;;73.03;43.20;;;;;;;;;;5038149;28;20423;-87
2022/02/21 05:42:56;;;;;;;72.85;42.67;;;;;;;;;;5045514;28;20446;-88
2022/02/21 05:45:23;;;;;;;75.97;44.58;;;;;;;;;;5041761;28;20411;-88
2022/02/21 05:47:50;;;;;;;72.60;43.03;;;;;;;;;;5034753;28;20421;-87
2022/02/21 05:50:18;;;;;;;79.68;45.10;;;;;;;;;;5034084;28;20411;-88
2022/02/21 05:52:45;;;;;;;75.23;44.27;;;;;;;;;;5030633;28;20409;-87
2022/02/21 05:55:12;;;;;;;80.70;45.35;;;;;;;;;;5013204;28;20468;-87
2022/02/21 05:57:39;;;;;;;77.38;43.33;;;;;;;;;;5042085;28;20790;-87
2022/02/21 06:00:07;;;;;;;75.97;42.38;;;;;;;;;;5034357;28;20416;-86
2022/02/21 06:02:34;;;;;;;73.35;43.17;;;;;;;;;;5042200;28;20396;-87
2022/02/21 06:05:01;;;;;;;74.67;42.30;;;;;;;;;;5046423;28;21169;-87
2022/02/21 06:07:30;;;;;;;69.70;41.58;;;;;;;;;;5042461;28;20434;-89
2022/02/21 06:09:57;;;;;;;72.80;42.70;;;;;;;;;;5024161;28;20504;-87
2022/02/21 06:12:24;;;;;;;70.85;41.05;;;;;;;;;;5021796;28;20445;-88
2022/02/21 06:14:50;;;;;;;68.55;39.88;;;;;;;;;;5036881;28;20441;-87
2022/02/21 06:17:17;;;;;;;67.88;40.95;;;;;;;;;;5034753;28;20414;-88
2022/02/21 06:19:44;;;;;;;67.88;41.00;;;;;;;;;;5035237;28;20408;-88
2022/02/21 06:22:11;;;;;;;72.63;42.60;;;;;;;;;;5034178;28;20570;-86
2022/02/21 06:24:39;;;;;;;70.78;41.70;;;;;;;;;;5032342;28;20885;-88
2022/02/21 06:27:06;;;;;;;68.93;40.53;;;;;;;;;;5034586;28;20638;-87
2022/02/21 06:29:33;;;;;;;69.47;40.58;;;;;;;;;;5036736;28;20406;-87
2022/02/21 06:32:00;;;;;;;71.07;41.35;;;;;;;;;;5042787;28;20540;-87
2022/02/21 06:34:27;;;;;;;71.70;41.75;;;;;;;;;;5034412;28;20402;-87
2022/02/21 06:36:53;;;;;;;75.70;41.20;;;;;;;;;;5046635;28;20399;-88
2022/02/21 06:39:21;;;;;;;68.75;40.45;;;;;;;;;;5054865;28;20753;-87
2022/02/21 06:41:50;;;;;;;72.15;41.88;;;;;;;;;;5034331;28;20405;-87
2022/02/21 06:44:18;;;;;;;72.22;42.20;;;;;;;;;;5037336;28;20419;-94
2022/02/21 06:46:45;;;;;;;71.15;41.65;;;;;;;;;;5042286;28;20417;-94
2022/02/21 06:49:13;;;;;;;72.78;41.72;;;;;;;;;;5047038;28;20481;-91
2022/02/21 06:51:40;;;;;;;69.97;41.17;;;;;;;;;;5050008;28;20416;-94
2022/02/21 06:54:08;;;;;;;74.82;40.92;;;;;;;;;;5023641;28;20436;-89
2022/02/21 06:56:36;;;;;;;76.30;42.35;;;;;;;;;;5032952;28;20742;-89
2022/02/21 06:59:04;;;;;;;68.53;41.22;;;;;;;;;;5017096;28;20405;-91
2022/02/21 07:01:32;;;;;;;72.25;40.53;;;;;;;;;;5038375;28;20903;-90
2022/02/21 07:03:59;;;;;;;68.10;39.63;;;;;;;;;;5025874;28;20429;-91
2022/02/21 07:06:26;;;;;;;69.35;39.22;;;;;;;;;;5050834;28;20465;-90
2022/02/21 07:08:53;;;;;;;67.53;37.88;;;;;;;;;;5053193;28;20758;-90
2022/02/21 07:11:20;;;;;;;66.78;38.70;;;;;;;;;;5062287;28;20474;-91
2022/02/21 07:13:47;;;;;;;66.65;37.33;;;;;;;;;;5041681;28;20426;-91
2022/02/21 07:16:15;;;;;;;68.35;37.03;;;;;;;;;;5045167;28;20460;-91
2022/02/21 07:18:42;;;;;;;64.80;36.63;;;;;;;;;;5050495;28;20430;-91
2022/02/21 07:21:08;;;;;;;65.07;35.50;;;;;;;;;;5055779;28;20399;-90
2022/02/21 07:23:36;;;;;;;59.75;35.15;;;;;;;;;;5050895;28;20418;-91
2022/02/21 07:26:04;;;;;;;62.33;35.45;;;;;;;;;;5053937;28;20393;-91
2022/02/21 07:28:32;;;;;;;64.18;36.30;;;;;;;;;;5057422;28;20577;-91
2022/02/21 07:30:59;;;;;;;63.08;34.10;;;;;;;;;;5052129;28;20438;-91
2022/02/21 07:33:28;;;;;;;63.95;36.08;;;;;;;;;;5056034;28;20415;-91
2022/02/21 07:35:56;;;;;;;64.70;35.45;;;;;;;;;;5050732;28;20454;-91
2022/02/21 07:38:23;;;;;;;62.42;36.30;;;;;;;;;;5068725;28;20435;-90
2022/02/21 07:40:51;;;;;;;62.03;35.47;;;;;;;;;;5065970;28;20407;-91
2022/02/21 07:43:18;;;;;;;62.03;35.90;;;;;;;;;;5050709;28;20457;-90
2022/02/21 07:45:45;;;;;;;59.63;34.58;;;;;;;;;;5055652;28;20649;-91
2022/02/21 07:48:12;;;;;;;60.10;33.75;;;;;;;;;;5049982;28;20862;-91
2022/02/21 07:50:40;;;;;;;64.40;35.53;;;;;;;;;;5050527;28;20460;-90
2022/02/21 07:53:08;;;;;;;63.45;35.15;;;;;;;;;;5046674;28;20434;-89
2022/02/21 07:55:34;;;;;;;62.40;35.15;;;;;;;;;;5049983;28;20525;-90
2022/02/21 07:58:01;;;;;;;60.77;33.83;;;;;;;;;;5051693;28;20455;-91
2022/02/21 08:00:28;;;;;;;62.60;34.58;;;;;;;;;;5060037;28;20401;-91
2022/02/21 08:02:55;;;;;;;62.20;34.40;;;;;;;;;;5044687;28;20398;-91
2022/02/21 08:05:23;;;;;;;62.58;35.55;;;;;;;;;;5049347;28;20394;-91
2022/02/21 08:07:51;;;;;;;59.25;34.40;;;;;;;;;;5040518;28;20420;-91
2022/02/21 08:10:18;;;;;;;64.38;36.42;;;;;;;;;;5049727;28;20418;-90
2022/02/21 08:12:45;;;;;;;65.03;37.08;;;;;;;;;;5016115;28;20400;-89
2022/02/21 08:15:12;;;;;;;64.57;36.33;;;;;;;;;;5047432;28;20411;-89
2022/02/21 08:17:39;;;;;;;63.30;36.70;;;;;;;;;;5050097;28;20888;-90
2022/02/21 08:20:08;;;;;;;66.38;37.00;;;;;;;;;;5050440;28;20415;-89
2022/02/21 08:22:35;;;;;;;65.00;36.00;;;;;;;;;;5050474;28;20431;-90
2022/02/21 08:25:04;;;;;;;68.07;38.08;;;;;;;;;;5037005;28;20400;-90
2022/02/21 08:27:31;;;;;;;62.50;36.88;;;;;;;;;;5059655;28;20429;-90
2022/02/21 08:29:58;;;;;;;64.13;37.00;;;;;;;;;;5038257;28;20407;-89
2022/02/21 08:32:25;;;;;;;65.50;35.77;;;;;;;;;;5057776;28;20905;-90
2022/02/21 08:34:52;;;;;;;61.30;34.88;;;;;;;;;;5046316;28;20510;-90
2022/02/21 08:37:19;;;;;;;64.05;36.13;;;;;;;;;;5038744;28;20395;-90
2022/02/21 08:39:46;;;;;;;65.93;35.88;;;;;;;;;;5049212;28;20403;-91
2022/02/21 08:42:14;;;;;;;62.70;35.67;;;;;;;;;;5047322;28;20459;-90
2022/02/21 08:44:41;;;;;;;63.72;36.13;;;;;;;;;;5051077;28;20444;-90
2022/02/21 08:47:08;;;;;;;62.38;35.22;;;;;;;;;;5054670;28;20414;-90
2022/02/21 08:49:35;;;;;;;66.22;35.70;;;;;;;;;;5054498;28;20392;-89
2022/02/21 08:52:02;;;;;;;67.17;35.73;;;;;;;;;;5055624;28;20853;-89
2022/02/21 08:54:29;;;;;;;64.40;35.13;;;;;;;;;;5055795;28;20402;-89
2022/02/21 08:56:56;;;;;;;66.15;35.35;;;;;;;;;;5049921;28;21005;-89
2022/02/21 08:59:25;;;;;;;70.75;36.17;;;;;;;;;;5030866;28;20404;-89
2022/02/21 09:01:52;;;;;;;68.47;35.58;;;;;;;;;;5049477;28;20914;-88
2022/02/21 09:04:19;;;;;;;73.53;35.13;;;;;;;;;;5048417;28;20398;-88
2022/02/21 09:06:45;;;;;;;65.20;35.03;;;;;;;;;;5049641;28;20774;-89
2022/02/21 09:09:12;;;;;;;74.07;35.95;;;;;;;;;;5052854;28;20885;-89
2022/02/21 09:11:39;;;;;;;72.38;34.85;;;;;;;;;;5059503;28;20414;-88
2022/02/21 09:14:06;;;;;;;77.20;36.03;;;;;;;;;;5042097;28;20449;-88
2022/02/21 09:16:34;;;;;;;72.93;35.80;;;;;;;;;;5050847;28;20434;-88
2022/02/21 09:19:02;;;;;;;76.60;36.45;;;;;;;;;;5049230;28;20407;-90
2022/02/21 09:21:29;;;;;;;77.63;36.72;;;;;;;;;;5048856;28;20400;-87
2022/02/21 09:23:56;;;;;;;80.10;36.10;;;;;;;;;;5058866;28;20411;-88
2022/02/21 09:26:23;;;;;;;76.87;36.07;;;;;;;;;;5035784;28;20607;-88
2022/02/21 09:28:50;;;;;;;69.93;34.78;;;;;;;;;;5047582;28;20477;-89
2022/02/21 09:31:17;;;;;;;75.38;35.45;;;;;;;;;;5048906;28;20411;-90
2022/02/21 09:33:45;;;;;;;72.22;35.10;;;;;;;;;;5045647;28;20495;-87
2022/02/21 09:36:12;;;;;;;70.15;34.10;;;;;;;;;;5045999;28;20458;-91
2022/02/21 09:38:40;;;;;;;70.43;34.05;;;;;;;;;;5047844;28;20446;-91
2022/02/21 09:41:07;;;;;;;63.00;31.95;;;;;;;;;;5049088;28;20445;-90
2022/02/21 09:43:34;;;;;;;67.82;33.05;;;;;;;;;;5049084;28;20407;-90
2022/02/21 09:46:04;;;;;;;70.95;33.88;;;;;;;;;;5048351;28;20434;-90
2022/02/21 09:48:31;;;;;;;70.97;32.92;;;;;;;;;;5048203;28;20844;-91
2022/02/21 09:51:01;;;;;;;69.68;32.63;;;;;;;;;;5048599;28;20491;-90
2022/02/21 09:53:28;;;;;;;61.88;31.08;;;;;;;;;;5053365;28;20417;-91
2022/02/21 09:55:56;;;;;;;63.33;30.95;;;;;;;;;;5049558;28;20843;-90
2022/02/21 09:58:23;;;;;;;63.60;30.65;;;;;;;;;;5052889;28;20414;-92
2022/02/21 10:00:50;;;;;;;70.53;32.17;;;;;;;;;;5049415;28;20403;-93
2022/02/21 10:03:19;;;;;;;63.83;28.92;;;;;;;;;;5053356;28;20482;-93
2022/02/21 10:05:48;;;;;;;64.28;31.00;;;;;;;;;;5040525;28;20887;-92
2022/02/21 10:08:16;;;;;;;64.18;30.95;;;;;;;;;;5053061;28;20503;-93
2022/02/21 10:10:43;;;;;;;63.78;31.08;;;;;;;;;;5054215;28;20473;-93
2022/02/21 10:13:10;;;;;;;66.35;32.03;;;;;;;;;;5053051;28;20404;-92
2022/02/21 10:15:38;;;;;;;73.07;32.42;;;;;;;;;;5050523;28;20416;-92
2022/02/21 10:18:13;;;;;;;68.30;32.22;;;;;;;;;;5052056;28;20436;-91
2022/02/21 10:20:54;;;;;;;67.17;32.53;;;;;;;;;;5060127;28;20402;-93
2022/02/21 10:23:25;;;;;;;70.25;33.80;;;;;;;;;;5068052;28;20459;-94
2022/02/21 10:25:56;;;;;;;70.13;33.63;;;;;;;;;;5057798;28;20905;-91
2022/02/21 10:28:29;;;;;;;67.38;32.88;;;;;;;;;;5059793;28;20940;-91
2022/02/21 10:31:12;;;;;;;68.10;33.30;;;;;;;;;;5032272;28;20435;-89
2022/02/21 10:33:40;;;;;;;70.65;35.00;;;;;;;;;;5046711;28;20429;-90
2022/02/21 10:36:28;;;;;;;69.20;32.53;;;;;;;;;;5048547;28;20429;-91
2022/02/21 10:38:57;;;;;;;69.97;33.95;;;;;;;;;;5045971;28;20412;-90
2022/02/21 10:41:46;;;;;;;65.35;33.78;;;;;;;;;;5056989;28;20426;-90
2022/02/21 10:44:22;;;;;;;68.03;33.33;;;;;;;;;;5065225;28;20749;-90
2022/02/21 10:47:07;;;;;;;67.75;33.08;;;;;;;;;;5068909;28;20478;-90
2022/02/21 10:49:38;;;;;;;68.20;34.00;;;;;;;;;;5051866;28;20924;-90
2022/02/21 10:52:06;;;;;;;68.27;33.93;;;;;;;;;;5071669;28;20409;-89
2022/02/21 10:54:37;;;;;;;69.55;33.67;;;;;;;;;;5071806;28;20427;-90
2022/02/21 10:57:07;;;;;;;73.63;35.00;;;;;;;;;;5071547;28;20871;-90
2022/02/21 10:59:34;;;;;;;75.13;35.03;;;;;;;;;;5071691;28;20450;-90
2022/02/21 11:02:02;;;;;;;69.57;34.20;;;;;;;;;;5071259;28;20414;-89
2022/02/21 11:04:31;;;;;;;72.70;34.22;;;;;;;;;;5071182;28;20873;-90
2022/02/21 11:07:00;;;;;;;70.43;35.17;;;;;;;;;;5054327;28;20820;-91
2022/02/21 11:09:29;;;;;;;75.13;35.05;;;;;;;;;;5033670;28;20473;-90
2022/02/21 11:12:00;;;;;;;72.03;36.30;;;;;;;;;;5066554;28;20481;-89
2022/02/21 11:14:29;;;;;;;73.88;36.17;;;;;;;;;;5064131;28;21125;-91
2022/02/21 11:16:58;;;;;;;75.10;37.00;;;;;;;;;;5071472;28;20419;-92
2022/02/21 11:19:25;;;;;;;72.45;37.45;;;;;;;;;;5059807;28;20409;-91
2022/02/21 11:21:52;;;;;;;70.83;36.90;;;;;;;;;;5051123;28;20407;-91
2022/02/21 11:24:22;;;;;;;70.60;36.30;;;;;;;;;;5051508;28;20468;-92
2022/02/21 11:26:58;;;;;;;71.55;35.55;;;;;;;;;;5051684;28;20400;-92
2022/02/21 11:29:35;;;;;;;69.13;34.92;;;;;;;;;;5060780;28;20502;-92
2022/02/21 11:32:02;;;;;;;71.68;35.63;;;;;;;;;;5052056;28;20760;-90
2022/02/21 11:34:29;;;;;;;70.47;35.08;;;;;;;;;;5046795;28;20395;-91
2022/02/21 11:37:00;;;;;;;66.32;34.67;;;;;;;;;;5059276;28;20399;-91
2022/02/21 11:39:30;;;;;;;71.28;34.83;;;;;;;;;;5069186;28;20398;-91
2022/02/21 11:42:06;;;;;;;66.43;34.55;;;;;;;;;;5068778;28;20412;-91
2022/02/21 11:44:46;;;;;;;71.78;35.78;;;;;;;;;;5052192;28;20945;-91
2022/02/21 11:47:34;;;;;;;69.20;35.05;;;;;;;;;;5035134;28;20398;-90
2022/02/21 11:50:02;;;;;;;75.13;36.75;;;;;;;;;;5069880;28;20417;-91
2022/02/21 11:52:32;;;;;;;75.93;36.72;;;;;;;;;;5066094;28;20664;-90
2022/02/21 11:54:59;;;;;;;82.97;39.10;;;;;;;;;;5051302;28;20396;-90
2022/02/21 11:57:36;;;;;;;79.18;37.88;;;;;;;;;;5060909;28;20421;-91
2022/02/21 12:03:17;;;;;;;85.67;38.83;;;;;;;;;;5106206;27;21139;-89
2022/02/21 12:05:44;;;;;;;86.90;38.67;;;;;;;;;;5105164;28;20416;-90
2022/02/21 12:08:22;;;;;;;79.18;38.05;;;;;;;;;;5109134;27;20405;-89
2022/02/21 12:11:14;;;;;;;83.20;37.58;;;;;;;;;;5107054;28;20407;-87
2022/02/21 12:14:15;;;;;;;80.60;38.13;;;;;;;;;;5104106;28;20392;-88
2022/02/21 12:17:05;;;;;;;81.80;37.28;;;;;;;;;;5103634;28;25125;-85
2022/02/21 12:19:35;;;;;;;81.93;38.33;;;;;;;;;;5097246;28;25152;-87
2022/02/21 12:22:17;;;;;;;88.82;39.60;;;;;;;;;;5101765;28;20419;-89
2022/02/21 12:25:13;;;;;;;86.90;38.50;;;;;;;;;;5104572;28;20430;-89
2022/02/21 12:28:11;;;;;;;83.97;39.08;;;;;;;;;;5102202;28;20393;-90
2022/02/21 12:30:39;;;;;;;84.50;38.03;;;;;;;;;;5104288;28;20494;-86
2022/02/21 12:33:07;;;;;;;84.83;38.30;;;;;;;;;;5103808;28;20403;-89
2022/02/21 12:35:49;;;;;;;82.73;38.50;;;;;;;;;;5103712;28;20408;-90
2022/02/21 12:38:17;;;;;;;82.40;37.80;;;;;;;;;;5095660;28;20732;-88
2022/02/21 12:40:59;;;;;;;84.60;38.20;;;;;;;;;;5102816;28;20392;-88
2022/02/21 12:43:45;;;;;;;84.35;38.13;;;;;;;;;;5108477;28;20523;-88
2022/02/21 12:46:12;;;;;;;79.30;37.33;;;;;;;;;;5099940;27;25197;-89
2022/02/21 12:48:39;;;;;;;81.93;38.20;;;;;;;;;;5104256;28;20740;-89
2022/02/21 12:51:08;;;;;;;86.68;37.63;;;;;;;;;;5104402;28;20407;-90
2022/02/21 12:53:35;;;;;;;83.47;38.15;;;;;;;;;;5109893;28;20431;-89
2022/02/21 12:56:03;;;;;;;85.37;36.63;;;;;;;;;;5104437;28;20403;-90
2022/02/21 12:58:37;;;;;;;89.13;38.50;;;;;;;;;;5101125;28;20879;-92
2022/02/21 13:01:11;;;;;;;83.13;38.55;;;;;;;;;;5101881;28;20439;-91
2022/02/21 13:03:38;;;;;;;83.40;37.08;;;;;;;;;;5104690;28;20407;-90
2022/02/21 13:06:10;;;;;;;85.15;37.10;;;;;;;;;;5105008;28;20399;-91
2022/02/21 13:08:38;;;;;;;83.15;36.97;;;;;;;;;;5104791;28;20883;-89
2022/02/21 13:11:05;;;;;;;89.07;37.42;;;;;;;;;;5105425;28;20398;-91
2022/02/21 13:13:32;;;;;;;84.78;36.40;;;;;;;;;;5097406;28;20878;-91
2022/02/21 13:16:05;;;;;;;84.10;36.23;;;;;;;;;;5088927;28;20489;-89
2022/02/21 13:18:47;;;;;;;86.85;37.47;;;;;;;;;;5089824;28;20403;-90
2022/02/21 13:21:29;;;;;;;78.68;36.08;;;;;;;;;;5090495;28;20423;-89
2022/02/21 13:23:56;;;;;;;78.68;36.17;;;;;;;;;;5091062;28;20412;-90
2022/02/21 13:26:23;;;;;;;81.90;36.83;;;;;;;;;;5092908;28;20411;-90
2022/02/21 13:28:51;;;;;;;80.40;37.20;;;;;;;;;;5092995;28;20404;-89
2022/02/21 13:31:18;;;;;;;80.97;37.90;;;;;;;;;;5091744;28;20419;-90
2022/02/21 13:33:48;;;;;;;78.97;36.83;;;;;;;;;;5092034;28;20420;-89
2022/02/21 13:36:25;;;;;;;77.30;35.20;;;;;;;;;;5092354;28;20409;-90
2022/02/21 13:38:56;;;;;;;81.30;36.95;;;;;;;;;;5104593;28;20453;-90
2022/02/21 13:41:24;;;;;;;81.75;35.97;;;;;;;;;;5095472;27;20931;-91
2022/02/21 13:43:51;;;;;;;75.78;35.30;;;;;;;;;;5092360;28;20763;-91
2022/02/21 13:46:18;;;;;;;73.72;34.63;;;;;;;;;;5096585;28;20404;-90
2022/02/21 13:48:46;;;;;;;73.95;34.63;;;;;;;;;;5091964;28;20499;-91
2022/02/21 13:51:22;;;;;;;74.82;35.35;;;;;;;;;;5096759;28;20517;-89
2022/02/21 13:53:49;;;;;;;73.87;35.97;;;;;;;;;;5091534;28;20554;-90
2022/02/21 13:56:17;;;;;;;78.40;36.30;;;;;;;;;;5092917;28;20412;-90
2022/02/21 13:58:46;;;;;;;72.35;34.92;;;;;;;;;;5091777;28;20408;-90
2022/02/21 14:01:15;;;;;;;73.40;34.20;;;;;;;;;;5089640;28;20409;-90
2022/02/21 14:03:45;;;;;;;70.32;34.92;;;;;;;;;;5092181;28;20420;-90
2022/02/21 14:06:13;;;;;;;71.40;35.55;;;;;;;;;;5089376;28;20408;-86
2022/02/21 14:08:44;;;;;;;71.10;35.35;;;;;;;;;;5089031;28;20415;-88
2022/02/21 14:11:12;;;;;;;72.97;36.83;;;;;;;;;;5089902;28;20903;-89
2022/02/21 14:13:41;;;;;;;74.93;36.97;;;;;;;;;;5090551;28;20462;-88
2022/02/21 14:16:09;;;;;;;73.65;34.95;;;;;;;;;;5088187;28;21104;-88
2022/02/21 14:18:38;;;;;;;66.55;34.65;;;;;;;;;;5089208;28;20416;-88
2022/02/21 14:21:07;;;;;;;72.90;34.57;;;;;;;;;;5088730;28;20879;-88
2022/02/21 14:23:34;;;;;;;65.45;32.47;;;;;;;;;;5091178;28;20412;-89
2022/02/21 14:26:04;;;;;;;65.72;32.75;;;;;;;;;;5087928;28;20415;-89
2022/02/21 14:28:31;;;;;;;61.55;32.22;;;;;;;;;;5089051;28;20411;-88